Time;durP1;ratioP1;P1;durP2;ratioP2;P2;SDS_P1;SDS_P2;PMS_P1;PMS_P2;Temp;Humidity;BMP_temperature;BMP_pressure;BME280_temperature;BME280_humidity;BME280_pressure;Samples;Min_cycle;Max_cycle;Signal;HPM_P1;HPM_P2
2023/11/21 00:01:56;;;;;;;;;;;;;;;;;;10114822;29;20063;-76
2023/11/21 00:26:48;;;;;;;;;;;;;;;;;;10203986;29;19923;-76
2023/11/21 00:32:20;;;;;;;;;;;;;;;;;;10222174;28;19922;-76
2023/11/21 00:37:32;;;;;;;;;;;;;;;;;;10268702;28;20461;-76
2023/11/21 00:42:36;;;;;;;;;;;;;;;;;;10266119;28;19929;-76
2023/11/21 00:47:46;;;;;;;;;;;;;;;;;;10274699;28;19929;-76
2023/11/21 00:52:56;;;;;;;;;;;;;;;;;;10282566;28;19922;-76
2023/11/21 00:58:24;;;;;;;;;;;;;;;;;;10264505;28;19926;-76
2023/11/21 01:03:34;;;;;;;;;;;;;;;;;;10276136;28;20261;-76
2023/11/21 01:08:56;;;;;;;;;;;;;;;;;;10287790;28;19930;-76
2023/11/21 01:14:26;;;;;;;;;;;;;;;;;;10253400;28;20267;-76
2023/11/21 01:19:59;;;;;;;;;;;;;;;;;;10293341;28;19928;-76
2023/11/21 01:25:32;;;;;;;;;;;;;;;;;;10247532;28;19932;-76
2023/11/21 01:31:14;;;;;;;;;;;;;;;;;;;;;
2023/11/21 01:43:31;;;;;;;;;;;;;;;;;;;;;
2023/11/21 01:55:21;;;;;;;;;;;;;;;;;;10119616;29;20456;-76
2023/11/21 02:00:58;;;;;;;;;;;;;;;;;;;;;
2023/11/21 02:06:11;;;;;;;;;;;;;;;;;;10285011;28;19944;-75
2023/11/21 02:11:15;;;;;;;;;;;;;;;;;;10275951;28;19922;-75
2023/11/21 02:16:18;;;;;;;;;;;;;;;;;;10268047;28;19929;-75
2023/11/21 02:21:22;;;;;;;;;;;;;;;;;;10278468;28;20014;-75
2023/11/21 02:26:26;;;;;;;;;;;;;;;;;;10259941;28;19923;-75
2023/11/21 02:31:29;;;;;;;;;;;;;;;;;;10285577;28;20527;-75
2023/11/21 02:36:33;;;;;;;;;;;;;;;;;;10288506;28;19922;-75
2023/11/21 02:41:37;;;;;;;;;;;;;;;;;;10268340;28;19921;-75
2023/11/21 02:46:40;;;;;;;;;;;;;;;;;;10284095;28;19922;-75
2023/11/21 02:51:43;;;;;;;;;;;;;;;;;;10280595;28;19985;-75
2023/11/21 02:56:49;;;;;;;;;;;;;;;;;;10289664;28;19922;-75
2023/11/21 03:01:52;;;;;;;;;;;;;;;;;;10289698;28;19929;-75
2023/11/21 03:06:55;;;;;;;;;;;;;;;;;;10270490;28;19976;-75
2023/11/21 03:29:05;;;;;;;;;;;;;;;;;;10165815;29;19933;-75
2023/11/21 03:34:17;;;;;;;;;;;;;;;;;;10202184;29;19927;-75
2023/11/21 03:45:18;;;;;;;;;;;;;;;;;;10368106;28;19949;-74
2023/11/21 03:50:42;;;;;;;;;;;;;;;;;;10369933;28;19937;-75
2023/11/21 03:55:49;;;;;;;;;;;;;;;;;;10357002;28;19921;-75
2023/11/21 04:01:03;;;;;;;;;;;;;;;;;;10365591;28;20305;-75
2023/11/21 04:06:17;;;;;;;;;;;;;;;;;;10370435;28;20020;-75
2023/11/21 04:11:20;;;;;;;;;;;;;;;;;;10360194;28;20395;-75
2023/11/21 04:16:27;;;;;;;;;;;;;;;;;;10368561;28;19925;-75
2023/11/21 04:21:31;;;;;;;;;;;;;;;;;;10368562;28;20363;-75
2023/11/21 04:26:35;;;;;;;;;;;;;;;;;;10343075;28;19996;-75
2023/11/21 04:31:39;;;;;;;;;;;;;;;;;;10362122;28;19940;-75
2023/11/21 04:36:45;;;;;;;;;;;;;;;;;;10339934;28;20421;-74
2023/11/21 04:41:48;;;;;;;;;;;;;;;;;;10362074;28;19921;-75
2023/11/21 04:46:53;;;;;;;;;;;;;;;;;;10363119;28;19922;-74
2023/11/21 04:51:56;;;;;;;;;;;;;;;;;;10363647;28;19921;-74
2023/11/21 04:57:00;;;;;;;;;;;;;;;;;;10364001;28;19921;-75
2023/11/21 05:02:05;;;;;;;;;;;;;;;;;;10362810;28;20548;-75
2023/11/21 05:07:16;;;;;;;;;;;;;;;;;;10361589;28;20418;-75
2023/11/21 05:12:19;;;;;;;;;;;;;;;;;;10348093;28;19928;-74
2023/11/21 05:17:26;;;;;;;;;;;;;;;;;;10362587;28;19925;-75
2023/11/21 05:22:29;;;;;;;;;;;;;;;;;;10362766;28;20464;-75
2023/11/21 05:27:37;;;;;;;;;;;;;;;;;;10349152;28;19929;-75
2023/11/21 05:32:44;;;;;;;;;;;;;;;;;;10364813;28;19921;-75
2023/11/21 05:37:49;;;;;;;;;;;;;;;;;;10363774;28;20008;-75
2023/11/21 05:42:55;;;;;;;;;;;;;;;;;;10352885;28;19928;-75
2023/11/21 05:48:12;;;;;;;;;;;;;;;;;;10356340;28;19927;-75
2023/11/21 05:53:15;;;;;;;;;;;;;;;;;;10364275;28;20028;-75
2023/11/21 05:58:21;;;;;;;;;;;;;;;;;;10358854;28;19922;-75
2023/11/21 06:03:32;;;;;;;;;;;;;;;;;;10358871;28;20332;-75
2023/11/21 06:14:44;;;;;;;;;;;;;;;;;;10352227;28;19922;-75
2023/11/21 06:20:16;;;;;;;;;;;;;;;;;;10275783;28;20398;-75
2023/11/21 06:25:36;;;;;;;;;;;;;;;;;;10355857;28;19921;-75
2023/11/21 06:30:57;;;;;;;;;;;;;;;;;;10345931;28;19921;-75
2023/11/21 06:36:11;;;;;;;;;;;;;;;;;;10356727;28;19928;-75
2023/11/21 06:41:17;;;;;;;;;;;;;;;;;;10362240;28;19921;-74
2023/11/21 06:46:27;;;;;;;;;;;;;;;;;;10364301;28;19991;-75
2023/11/21 06:51:33;;;;;;;;;;;;;;;;;;10376022;28;20301;-75
2023/11/21 07:02:14;;;;;;;;;;;;;;;;;;10364227;28;19925;-75
2023/11/21 07:07:37;;;;;;;;;;;;;;;;;;;;;
2023/11/21 07:12:53;;;;;;;;;;;;;;;;;;10369474;28;19967;-75
2023/11/21 07:18:12;;;;;;;;;;;;;;;;;;10368174;28;19962;-75
2023/11/21 07:23:21;;;;;;;;;;;;;;;;;;10373770;28;19936;-75
2023/11/21 07:35:12;;;;;;;;;;;;;;;;;;10361115;28;20421;-75
2023/11/21 12:02:02;;;;;;;;;;;;;;;;;;10066751;29;19927;-74
2023/11/21 12:07:24;;;;;;;;;;;;;;;;;;10124215;29;19923;-74
2023/11/21 12:13:01;;;;;;;;;;;;;;;;;;10133856;29;19923;-74
2023/11/21 12:18:42;;;;;;;;;;;;;;;;;;10185935;29;19993;-74
2023/11/21 12:24:28;;;;;;;;;;;;;;;;;;10231358;28;19926;-74
2023/11/21 12:29:33;;;;;;;;;;;;;;;;;;10282023;28;19988;-74
2023/11/21 12:34:41;;;;;;;;;;;;;;;;;;10272884;28;19922;-74
2023/11/21 12:39:45;;;;;;;;;;;;;;;;;;10261815;28;20572;-74
2023/11/21 12:45:06;;;;;;;;;;;;;;;;;;10286752;28;19922;-74
2023/11/21 12:50:28;;;;;;;;;;;;;;;;;;10275543;28;20374;-74
2023/11/21 12:55:37;;;;;;;;;;;;;;;;;;10274469;28;20383;-74
2023/11/21 13:00:41;;;;;;;;;;;;;;;;;;10273504;28;19976;-74
2023/11/21 13:05:50;;;;;;;;;;;;;;;;;;10282116;28;19930;-74
2023/11/21 13:10:56;;;;;;;;;;;;;;;;;;10286872;28;19944;-74
2023/11/21 13:16:04;;;;;;;;;;;;;;;;;;10291231;28;19928;-74
2023/11/21 13:21:12;;;;;;;;;;;;;;;;;;10264829;28;20360;-74
2023/11/21 13:26:23;;;;;;;;;;;;;;;;;;10277991;28;19922;-74
2023/11/21 13:31:32;;;;;;;;;;;;;;;;;;10266714;28;20418;-74
2023/11/21 13:36:38;;;;;;;;;;;;;;;;;;10279448;28;19921;-74
2023/11/21 13:41:54;;;;;;;;;;;;;;;;;;10279865;28;19921;-75
2023/11/21 13:47:25;;;;;;;;;;;;;;;;;;10258680;28;19934;-74
2023/11/21 13:52:33;;;;;;;;;;;;;;;;;;10271934;28;19930;-74
2023/11/21 13:57:37;;;;;;;;;;;;;;;;;;10267015;28;19927;-74
2023/11/21 14:02:43;;;;;;;;;;;;;;;;;;10285492;28;20005;-75
2023/11/21 14:07:47;;;;;;;;;;;;;;;;;;10270366;28;19922;-74
2023/11/21 14:12:52;;;;;;;;;;;;;;;;;;10285499;28;19948;-74
2023/11/21 14:17:56;;;;;;;;;;;;;;;;;;10276462;28;19923;-74
2023/11/21 14:22:59;;;;;;;;;;;;;;;;;;10285437;28;19922;-74
2023/11/21 14:28:05;;;;;;;;;;;;;;;;;;10286119;28;19922;-74
2023/11/21 14:33:11;;;;;;;;;;;;;;;;;;10284642;28;19930;-74
2023/11/21 14:38:17;;;;;;;;;;;;;;;;;;10296045;28;19922;-74
2023/11/21 14:43:22;;;;;;;;;;;;;;;;;;10280365;28;19922;-74
2023/11/21 14:48:41;;;;;;;;;;;;;;;;;;10268688;28;19922;-75
2023/11/21 14:53:53;;;;;;;;;;;;;;;;;;10289064;28;20300;-74
2023/11/21 14:58:59;;;;;;;;;;;;;;;;;;10288192;28;19986;-74
2023/11/21 15:04:03;;;;;;;;;;;;;;;;;;10279568;28;20578;-74
2023/11/21 15:14:50;;;;;;;;;;;;;;;;;;10499305;28;19924;-74
2023/11/21 15:19:55;;;;;;;;;;;;;;;;;;10486017;28;19935;-74
2023/11/21 15:25:04;;;;;;;;;;;;;;;;;;10485635;28;20050;-74
2023/11/21 15:30:10;;;;;;;;;;;;;;;;;;10482633;28;20408;-74
2023/11/21 15:35:19;;;;;;;;;;;;;;;;;;10483827;28;19932;-74
2023/11/21 15:40:23;;;;;;;;;;;;;;;;;;10482468;28;19925;-74
2023/11/21 15:45:27;;;;;;;;;;;;;;;;;;10482237;28;20329;-74
2023/11/21 15:50:33;;;;;;;;;;;;;;;;;;10480321;28;20392;-74
2023/11/21 15:55:42;;;;;;;;;;;;;;;;;;10491752;22;20394;-74
2023/11/21 16:00:46;;;;;;;;;;;;;;;;;;10469536;28;19959;-74
2023/11/21 16:05:50;;;;;;;;;;;;;;;;;;10466025;28;20054;-74
2023/11/21 16:10:53;;;;;;;;;;;;;;;;;;10465801;28;19925;-74
2023/11/21 16:15:58;;;;;;;;;;;;;;;;;;10473892;28;19929;-74
2023/11/21 16:21:01;;;;;;;;;;;;;;;;;;10463763;28;19956;-73
2023/11/21 16:26:05;;;;;;;;;;;;;;;;;;10429274;28;19955;-74
2023/11/21 16:31:10;;;;;;;;;;;;;;;;;;10442006;28;19925;-74
2023/11/21 16:36:14;;;;;;;;;;;;;;;;;;10439478;28;19925;-73
2023/11/21 16:41:17;;;;;;;;;;;;;;;;;;10437739;28;19982;-74
2023/11/21 16:46:22;;;;;;;;;;;;;;;;;;10416788;28;19960;-73
2023/11/21 16:51:25;;;;;;;;;;;;;;;;;;10427707;28;20438;-74
2023/11/21 16:56:28;;;;;;;;;;;;;;;;;;10438431;28;19931;-74
2023/11/21 17:01:33;;;;;;;;;;;;;;;;;;10438124;28;19929;-74
2023/11/21 17:06:36;;;;;;;;;;;;;;;;;;10432741;28;20385;-74
2023/11/21 17:11:39;;;;;;;;;;;;;;;;;;10442479;28;19926;-74
2023/11/21 17:16:45;;;;;;;;;;;;;;;;;;10440466;28;20556;-74
2023/11/21 17:21:48;;;;;;;;;;;;;;;;;;10440552;28;19925;-74
2023/11/21 17:26:52;;;;;;;;;;;;;;;;;;10447344;28;19998;-74
2023/11/21 17:31:57;;;;;;;;;;;;;;;;;;10435508;28;20023;-74
2023/11/21 17:37:00;;;;;;;;;;;;;;;;;;10437164;28;19957;-74
2023/11/21 17:42:03;;;;;;;;;;;;;;;;;;10433904;28;19932;-74
2023/11/21 17:47:09;;;;;;;;;;;;;;;;;;10439226;28;19924;-73
2023/11/21 17:52:12;;;;;;;;;;;;;;;;;;10434474;28;19924;-74
2023/11/21 17:57:16;;;;;;;;;;;;;;;;;;10436941;28;19972;-74
2023/11/21 18:02:21;;;;;;;;;;;;;;;;;;10444849;28;19925;-74
2023/11/21 18:07:24;;;;;;;;;;;;;;;;;;10437130;28;19979;-74
2023/11/21 18:12:27;;;;;;;;;;;;;;;;;;10428426;28;20294;-74
2023/11/21 18:17:32;;;;;;;;;;;;;;;;;;10441796;28;19925;-74
2023/11/21 18:22:35;;;;;;;;;;;;;;;;;;10443913;28;19931;-74
2023/11/21 18:32:15;;;;;;;;;;;;;;;;;;10520035;27;441071;-73
2023/11/21 18:38:53;;;;;;;7.43;4.93;;;;;;;;;;10386058;28;20357;-73
2023/11/21 18:43:56;;;;;;;7.20;4.38;;;;;;;;;;10386787;28;20041;-73
2023/11/21 18:48:59;;;;;;;8.43;5.00;;;;;;;;;;10388803;28;20072;-73
2023/11/21 18:54:05;;;;;;;12.07;6.93;;;;;;;;;;10391190;28;20056;-74
2023/11/21 18:59:10;;;;;;;10.17;6.90;;;;;;;;;;10383989;28;20068;-74
2023/11/21 19:04:20;;;;;;;9.00;5.97;;;;;;;;;;10378541;28;20034;-74
2023/11/21 19:09:25;;;;;;;8.20;5.72;;;;;;;;;;10371471;28;20053;-74
2023/11/21 19:14:28;;;;;;;13.18;9.77;;;;;;;;;;10370080;28;20439;-74
2023/11/21 19:19:32;;;;;;;10.85;7.88;;;;;;;;;;10373168;28;20050;-74
2023/11/21 19:24:36;;;;;;;6.22;5.35;;;;;;;;;;10373276;28;20038;-74
2023/11/21 19:29:39;;;;;;;5.93;3.80;;;;;;;;;;10380072;28;20458;-74
2023/11/21 19:34:43;;;;;;;5.70;3.25;;;;;;;;;;10376181;28;20137;-73
2023/11/21 19:47:00;;;;;;;1.40;0.68;;;;;;;;;;10609166;27;20399;-75
2023/11/21 19:52:06;;;;;;;1.00;0.73;;;;;;;;;;10611726;27;20032;-75
2023/11/21 19:57:11;;;;;;;1.33;1.23;;;;;;;;;;10597043;27;20043;-75
2023/11/21 20:02:17;;;;;;;2.28;1.73;;;;;;;;;;10610806;27;20466;-75
2023/11/21 20:07:21;;;;;;;3.03;2.10;;;;;;;;;;10612587;27;20046;-75
2023/11/21 20:12:25;;;;;;;3.83;2.97;;;;;;;;;;10609990;27;20082;-76
2023/11/21 20:17:30;;;;;;;3.33;2.70;;;;;;;;;;10610520;27;20070;-73
2023/11/21 20:22:35;;;;;;;3.53;2.83;;;;;;;;;;10610351;27;20106;-73
2023/11/21 20:27:39;;;;;;;5.55;3.30;;;;;;;;;;10611573;27;20036;-73
2023/11/21 20:32:44;;;;;;;4.00;3.10;;;;;;;;;;10597873;27;21097;-74
2023/11/21 20:37:48;;;;;;;2.95;2.60;;;;;;;;;;10597576;28;20395;-73
2023/11/21 20:42:52;;;;;;;3.58;2.90;;;;;;;;;;10599816;27;20032;-74
2023/11/21 20:47:57;;;;;;;3.60;2.45;;;;;;;;;;10601065;28;20040;-74
2023/11/21 20:53:01;;;;;;;5.25;3.08;;;;;;;;;;10600754;28;20059;-74
2023/11/21 20:58:04;;;;;;;4.32;2.88;;;;;;;;;;10573990;28;20050;-73
2023/11/21 21:03:11;;;;;;;3.05;2.53;;;;;;;;;;10578324;28;20055;-73
2023/11/21 21:08:14;;;;;;;3.08;1.83;;;;;;;;;;10578964;27;20131;-73
2023/11/21 21:13:18;;;;;;;3.72;2.47;;;;;;;;;;10575325;27;20129;-73
2023/11/21 21:18:26;;;;;;;3.42;2.30;;;;;;;;;;10565959;27;20713;-73
2023/11/21 21:23:29;;;;;;;3.45;2.38;;;;;;;;;;10570669;28;20036;-73
2023/11/21 21:28:33;;;;;;;2.97;2.25;;;;;;;;;;10572242;28;20035;-73
2023/11/21 21:33:38;;;;;;;4.93;3.53;;;;;;;;;;10581818;27;20238;-73
2023/11/21 21:38:42;;;;;;;3.70;2.30;;;;;;;;;;10577039;27;20060;-73
2023/11/21 21:43:46;;;;;;;2.90;2.17;;;;;;;;;;10580641;27;20040;-73
2023/11/21 21:48:51;;;;;;;3.65;2.40;;;;;;;;;;10576333;28;20055;-73
2023/11/21 21:53:55;;;;;;;3.10;2.58;;;;;;;;;;10576236;27;20031;-73
2023/11/21 21:58:59;;;;;;;2.50;2.15;;;;;;;;;;10587938;22;20251;-74
2023/11/21 22:04:05;;;;;;;2.25;1.95;;;;;;;;;;10554532;28;20036;-74
2023/11/21 22:09:10;;;;;;;2.90;2.05;;;;;;;;;;10568180;28;20484;-74
2023/11/21 22:14:14;;;;;;;1.73;1.30;;;;;;;;;;10571759;28;20047;-74
2023/11/21 22:19:19;;;;;;;1.90;1.60;;;;;;;;;;10570288;28;20058;-74
2023/11/21 22:24:22;;;;;;;1.73;1.38;;;;;;;;;;10574052;27;20051;-74
2023/11/21 22:29:25;;;;;;;2.15;1.70;;;;;;;;;;10573487;28;20544;-74
2023/11/21 22:34:30;;;;;;;1.73;1.50;;;;;;;;;;10568337;28;20063;-74
2023/11/21 22:39:33;;;;;;;1.30;1.20;;;;;;;;;;10570185;28;20043;-74
2023/11/21 22:44:37;;;;;;;1.20;1.10;;;;;;;;;;10569704;28;20036;-74
2023/11/21 22:49:41;;;;;;;1.40;1.30;;;;;;;;;;10574936;28;20100;-74
2023/11/21 22:54:45;;;;;;;1.55;1.40;;;;;;;;;;10569815;28;20095;-74
2023/11/21 22:59:50;;;;;;;1.20;1.10;;;;;;;;;;10572135;28;20035;-74
2023/11/21 23:04:54;;;;;;;1.30;1.20;;;;;;;;;;10568559;28;20031;-74
2023/11/21 23:09:58;;;;;;;1.85;1.10;;;;;;;;;;10565320;28;20046;-74
2023/11/21 23:15:02;;;;;;;1.35;1.00;;;;;;;;;;10572017;28;20043;-74
2023/11/21 23:20:10;;;;;;;1.60;1.45;;;;;;;;;;10572438;28;20111;-74
2023/11/21 23:25:15;;;;;;;1.60;1.20;;;;;;;;;;10569215;28;20042;-74
2023/11/21 23:30:19;;;;;;;1.40;1.23;;;;;;;;;;10564599;28;20032;-74
2023/11/21 23:35:23;;;;;;;1.90;1.33;;;;;;;;;;10570106;28;20515;-74
2023/11/21 23:40:27;;;;;;;2.38;1.58;;;;;;;;;;10553645;28;20075;-74
2023/11/21 23:45:30;;;;;;;1.65;1.27;;;;;;;;;;10561506;28;20040;-74
2023/11/21 23:50:35;;;;;;;1.52;1.25;;;;;;;;;;10569251;28;20052;-74
2023/11/21 23:55:38;;;;;;;1.48;1.23;;;;;;;;;;10567673;28;20036;-74
